createdAt,value
2023-04-18T00:00:31.561Z,6.57
2023-04-18T00:02:59.707Z,6.20
2023-04-18T00:05:27.995Z,6.43
2023-04-18T00:07:54.961Z,7.13
2023-04-18T00:10:21.567Z,7.00
2023-04-18T00:12:48.222Z,6.90
2023-04-18T00:15:14.937Z,6.40
2023-04-18T00:17:41.420Z,6.83
2023-04-18T00:20:11.031Z,6.63
2023-04-18T00:22:42.730Z,6.53
2023-04-18T00:25:13.160Z,6.90
2023-04-18T00:27:39.740Z,6.70
2023-04-18T00:30:06.902Z,6.40
2023-04-18T00:32:33.442Z,7.00
2023-04-18T00:35:00.015Z,6.60
2023-04-18T00:37:26.752Z,7.00
2023-04-18T00:39:54.143Z,6.40
2023-04-18T00:42:22.186Z,7.03
2023-04-18T00:44:49.152Z,6.83
2023-04-18T00:47:16.794Z,6.83
2023-04-18T00:49:46.175Z,6.80
2023-04-18T00:52:12.685Z,7.50
2023-04-18T00:54:39.816Z,6.60
2023-04-18T00:57:06.325Z,7.23
2023-04-18T00:59:34.013Z,6.70
2023-04-18T01:02:01.037Z,6.53
2023-04-18T01:04:27.903Z,7.20
2023-04-18T01:06:54.460Z,6.77
2023-04-18T01:09:21.263Z,6.70
2023-04-18T01:11:47.717Z,6.80
2023-04-18T01:14:14.691Z,6.63
2023-04-18T01:16:41.378Z,6.40
2023-04-18T01:19:08.186Z,6.13
2023-04-18T01:21:36.298Z,5.90
2023-04-18T01:24:16.377Z,6.63
2023-04-18T01:26:44.255Z,6.70
2023-04-18T01:29:11.168Z,6.70
2023-04-18T01:31:38.513Z,6.07
2023-04-18T01:34:05.858Z,7.00
2023-04-18T01:36:33.195Z,6.00
2023-04-18T01:39:00.049Z,6.80
2023-04-18T01:41:27.620Z,6.40
2023-04-18T01:43:54.057Z,5.90
2023-04-18T01:46:20.594Z,6.30
2023-04-18T01:48:47.084Z,6.80
2023-04-18T01:51:14.159Z,6.37
2023-04-18T01:53:41.069Z,6.53
2023-04-18T01:56:07.647Z,5.60
2023-04-18T01:58:34.182Z,5.83
2023-04-18T02:01:00.777Z,5.73
2023-04-18T02:03:27.523Z,6.40
2023-04-18T02:05:54.466Z,5.80
2023-04-18T02:08:21.096Z,6.17
2023-04-18T02:10:47.591Z,5.90
2023-04-18T02:13:15.637Z,5.50
2023-04-18T02:15:43.656Z,5.57
2023-04-18T02:18:11.660Z,5.33
2023-04-18T02:20:38.248Z,5.60
2023-04-18T02:23:05.254Z,5.80
2023-04-18T02:25:31.988Z,5.40
2023-04-18T02:27:58.804Z,5.50
2023-04-18T02:30:26.032Z,5.63
2023-04-18T02:32:53.387Z,5.70
2023-04-18T02:35:22.990Z,5.97
2023-04-18T02:37:49.870Z,5.17
2023-04-18T02:40:16.375Z,5.57
2023-04-18T02:42:42.852Z,5.77
2023-04-18T02:45:09.541Z,5.60
2023-04-18T02:47:43.826Z,5.70
2023-04-18T02:50:20.688Z,6.13
2023-04-18T02:52:47.204Z,5.87
2023-04-18T02:55:13.758Z,5.70
2023-04-18T02:57:40.258Z,4.93
2023-04-18T03:00:07.986Z,5.40
2023-04-18T03:02:34.676Z,5.57
2023-04-18T03:05:01.359Z,5.70
2023-04-18T03:07:28.180Z,5.73
2023-04-18T03:09:54.741Z,5.57
2023-04-18T03:12:21.536Z,5.40
2023-04-18T03:14:48.105Z,5.50
2023-04-18T03:17:14.572Z,5.43
2023-04-18T03:19:41.099Z,5.53
2023-04-18T03:22:07.616Z,5.80
2023-04-18T03:24:34.446Z,5.20
2023-04-18T03:27:01.251Z,5.63
2023-04-18T03:29:27.780Z,5.37
2023-04-18T03:31:54.240Z,5.40
2023-04-18T03:34:20.892Z,5.27
2023-04-18T03:36:48.114Z,5.60
2023-04-18T03:39:14.796Z,5.40
2023-04-18T03:41:41.272Z,6.00
2023-04-18T03:44:08.096Z,5.53
2023-04-18T03:46:35.106Z,5.40
2023-04-18T03:49:01.629Z,5.33
2023-04-18T03:51:32.408Z,5.43
2023-04-18T03:53:58.861Z,5.53
2023-04-18T03:56:25.560Z,5.37
2023-04-18T03:58:52.085Z,6.07
2023-04-18T04:01:18.598Z,5.77
2023-04-18T04:03:45.221Z,5.77
2023-04-18T04:06:11.873Z,5.87
2023-04-18T04:08:38.336Z,5.93
2023-04-18T04:11:05.174Z,6.03
2023-04-18T04:13:31.629Z,5.93
2023-04-18T04:15:58.208Z,5.80
2023-04-18T04:18:31.286Z,5.20
2023-04-18T04:20:59.224Z,5.80
2023-04-18T04:23:26.929Z,5.50
2023-04-18T04:25:53.938Z,5.80
2023-04-18T04:28:23.974Z,5.90
2023-04-18T04:30:51.055Z,5.87
2023-04-18T04:33:20.582Z,6.40
2023-04-18T04:35:47.471Z,5.60
2023-04-18T04:38:15.456Z,5.60
2023-04-18T04:40:42.640Z,6.47
2023-04-18T04:43:12.928Z,6.63
2023-04-18T04:45:42.350Z,6.27
2023-04-18T04:48:09.668Z,6.13
2023-04-18T04:50:37.088Z,7.20
2023-04-18T04:53:03.741Z,6.50
2023-04-18T04:55:30.371Z,6.57
2023-04-18T04:57:57.568Z,6.70
2023-04-18T05:00:24.144Z,6.53
2023-04-18T05:02:53.553Z,6.93
2023-04-18T05:05:20.214Z,6.13
2023-04-18T05:07:47.027Z,6.97
2023-04-18T05:10:15.965Z,7.10
2023-04-18T05:12:42.472Z,6.90
2023-04-18T05:15:09.095Z,7.27
2023-04-18T05:17:35.608Z,7.00
2023-04-18T05:20:02.214Z,7.80
2023-04-18T05:22:29.152Z,7.03
2023-04-18T05:24:55.665Z,7.80
2023-04-18T05:27:22.143Z,7.23
2023-04-18T05:29:50.329Z,7.27
2023-04-18T05:32:17.056Z,7.37
2023-04-18T05:34:43.559Z,7.83
2023-04-18T05:37:10.116Z,7.90
2023-04-18T05:39:36.679Z,7.73
2023-04-18T05:42:03.487Z,8.20
2023-04-18T05:44:30.377Z,7.10
2023-04-18T05:46:56.984Z,7.80
2023-04-18T05:49:23.810Z,7.43
2023-04-18T05:51:50.267Z,7.47
2023-04-18T05:54:17.073Z,7.33
2023-04-18T05:56:43.666Z,8.27
2023-04-18T05:59:10.448Z,8.00
2023-04-18T06:01:36.930Z,7.90
2023-04-18T06:04:03.533Z,8.00
2023-04-18T06:06:30.225Z,7.90
2023-04-18T06:08:56.743Z,7.73
2023-04-18T06:11:23.258Z,8.07
2023-04-18T06:13:49.785Z,7.87
2023-04-18T06:16:16.407Z,8.00
2023-04-18T06:18:42.888Z,8.40
2023-04-18T06:21:09.379Z,8.13
2023-04-18T06:23:35.898Z,8.03
2023-04-18T06:26:02.417Z,8.40
2023-04-18T06:28:28.892Z,8.23
2023-04-18T06:30:55.399Z,8.43
2023-04-18T06:33:22.067Z,8.30
2023-04-18T06:35:48.553Z,8.70
2023-04-18T06:38:15.497Z,8.07
2023-04-18T06:40:42.025Z,8.37
2023-04-18T06:43:08.550Z,8.33
2023-04-18T06:45:35.405Z,8.90
2023-04-18T06:48:04.981Z,8.43
2023-04-18T06:50:31.598Z,7.90
2023-04-18T06:52:58.235Z,8.03
2023-04-18T06:55:24.719Z,7.73
2023-04-18T06:57:51.168Z,7.47
2023-04-18T07:00:17.765Z,7.83
2023-04-18T07:02:44.455Z,8.40
2023-04-18T07:05:11.163Z,8.00
2023-04-18T07:07:37.906Z,8.33
2023-04-18T07:10:04.600Z,7.40
2023-04-18T07:12:33.970Z,8.63
2023-04-18T07:15:00.493Z,8.13
2023-04-18T07:17:26.958Z,8.73
2023-04-18T07:19:53.466Z,8.10
2023-04-18T07:22:19.935Z,8.37
2023-04-18T07:24:46.572Z,8.50
2023-04-18T07:27:13.363Z,9.10
2023-04-18T07:29:39.902Z,8.27
2023-04-18T07:32:08.115Z,9.40
2023-04-18T07:34:36.350Z,9.00
2023-04-18T07:37:02.882Z,9.80
2023-04-18T07:39:29.442Z,9.73
2023-04-18T07:41:56.100Z,10.23
2023-04-18T07:44:22.622Z,9.03
2023-04-18T07:46:49.410Z,9.53
2023-04-18T07:49:16.262Z,8.30
2023-04-18T07:51:42.875Z,9.30
2023-04-18T07:54:11.251Z,8.93
2023-04-18T07:56:37.775Z,8.10
2023-04-18T07:59:04.248Z,7.90
2023-04-18T08:01:31.594Z,8.60
2023-04-18T08:04:01.752Z,7.80
2023-04-18T08:06:29.063Z,8.63
2023-04-18T08:08:55.799Z,9.73
2023-04-18T08:11:22.720Z,8.40
2023-04-18T08:13:49.208Z,9.20
2023-04-18T08:16:17.525Z,8.97
2023-04-18T08:18:44.320Z,10.63
2023-04-18T08:21:10.847Z,11.17
2023-04-18T08:23:37.328Z,11.00
2023-04-18T08:26:03.814Z,9.97
2023-04-18T08:28:30.378Z,11.17
2023-04-18T08:30:56.890Z,10.80
2023-04-18T08:33:24.517Z,11.13
2023-04-18T08:35:51.690Z,11.03
2023-04-18T08:38:19.070Z,10.47
2023-04-18T08:40:45.774Z,10.97
2023-04-18T08:43:14.270Z,11.67
2023-04-18T08:45:41.693Z,11.57
2023-04-18T08:48:11.535Z,10.67
2023-04-18T08:50:37.999Z,10.50
2023-04-18T08:53:04.472Z,11.07
2023-04-18T08:55:31.076Z,11.33
2023-04-18T08:57:57.588Z,10.80
2023-04-18T09:00:24.146Z,11.37
2023-04-18T09:02:57.159Z,10.70
2023-04-18T09:05:25.129Z,10.27
2023-04-18T09:07:53.174Z,11.83
2023-04-18T09:10:26.560Z,10.03
2023-04-18T09:12:53.035Z,10.33
2023-04-18T09:15:23.332Z,10.73
2023-04-18T09:17:52.652Z,12.33
2023-04-18T09:20:30.826Z,11.27
2023-04-18T09:23:00.915Z,11.50
2023-04-18T09:25:29.546Z,11.20
2023-04-18T09:27:57.526Z,11.00
2023-04-18T09:30:37.022Z,11.73
2023-04-18T09:33:07.991Z,10.53
2023-04-18T09:35:34.877Z,10.33
2023-04-18T09:38:01.768Z,10.50
2023-04-18T09:40:28.504Z,10.43
2023-04-18T09:42:55.513Z,10.70
2023-04-18T09:45:22.675Z,10.77
2023-04-18T09:47:49.544Z,11.57
2023-04-18T09:50:20.755Z,10.80
2023-04-18T09:52:47.917Z,10.90
2023-04-18T09:55:16.277Z,10.87
2023-04-18T09:57:44.306Z,11.63
2023-04-18T10:00:17.964Z,11.47
2023-04-18T10:02:47.575Z,11.77
2023-04-18T10:05:14.996Z,11.60
2023-04-18T10:07:44.015Z,10.87
2023-04-18T10:10:10.749Z,11.23
2023-04-18T10:12:37.980Z,11.43
2023-04-18T10:15:05.199Z,10.97
2023-04-18T10:18:02.658Z,11.70
2023-04-18T10:20:31.362Z,10.73
2023-04-18T10:22:58.929Z,10.83
2023-04-18T10:25:34.282Z,9.83
2023-04-18T10:28:02.001Z,10.47
2023-04-18T10:30:40.622Z,10.47
2023-04-18T10:33:30.969Z,10.23
2023-04-18T10:36:19.961Z,10.73
2023-04-18T10:38:48.996Z,9.80
2023-04-18T10:41:17.004Z,11.30
2023-04-18T10:44:02.428Z,11.63
2023-04-18T10:46:32.448Z,10.27
2023-04-18T10:49:18.342Z,10.90
2023-04-18T10:51:45.476Z,11.07
2023-04-18T10:54:25.698Z,10.63
2023-04-18T10:56:56.230Z,11.00
2023-04-18T10:59:23.987Z,9.53
2023-04-18T11:01:55.734Z,11.03
2023-04-18T11:04:22.999Z,10.83
2023-04-18T11:06:55.021Z,10.27
2023-04-18T11:09:22.588Z,10.23
2023-04-18T11:12:05.578Z,10.40
2023-04-18T11:14:41.638Z,10.70
2023-04-18T11:17:27.933Z,10.20
2023-04-18T11:20:09.586Z,10.27
2023-04-18T11:22:48.354Z,11.13
2023-04-18T11:25:15.570Z,10.87
2023-04-18T11:27:46.032Z,10.37
2023-04-18T11:30:13.425Z,9.67
2023-04-18T11:32:39.957Z,10.80
2023-04-18T11:35:09.004Z,10.47
2023-04-18T11:37:35.916Z,10.17
2023-04-18T11:40:02.596Z,10.20
2023-04-18T11:42:29.146Z,10.03
2023-04-18T11:44:56.020Z,10.30
2023-04-18T11:47:23.507Z,10.80
2023-04-18T11:49:57.062Z,11.13
2023-04-18T11:52:24.620Z,9.83
2023-04-18T11:54:51.412Z,9.23
2023-04-18T11:57:22.220Z,10.47
2023-04-18T11:59:50.085Z,10.67
2023-04-18T12:02:17.261Z,11.23
2023-04-18T12:04:53.812Z,11.03
2023-04-18T12:07:30.980Z,10.13
2023-04-18T12:09:57.495Z,10.70
2023-04-18T12:12:24.000Z,11.07
2023-04-18T12:14:58.100Z,11.20
2023-04-18T12:17:26.261Z,10.83
2023-04-18T12:19:53.906Z,10.93
2023-04-18T12:22:20.403Z,11.23
2023-04-18T12:24:46.913Z,10.43
2023-04-18T12:27:13.371Z,10.30
2023-04-18T12:29:39.892Z,11.47
2023-04-18T12:32:09.047Z,11.80
2023-04-18T12:34:36.076Z,10.90
2023-04-18T12:37:04.062Z,11.93
2023-04-18T12:39:30.624Z,12.70
2023-04-18T12:41:57.144Z,11.60
2023-04-18T12:44:24.812Z,12.03
2023-04-18T12:46:51.316Z,12.20
2023-04-18T12:49:17.799Z,12.40
2023-04-18T12:51:44.308Z,11.67
2023-04-18T12:54:10.837Z,11.67
2023-04-18T12:56:37.271Z,11.73
2023-04-18T12:59:03.758Z,10.93
2023-04-18T13:01:30.268Z,11.00
2023-04-18T13:04:11.042Z,10.50
2023-04-18T13:06:39.247Z,11.60
2023-04-18T13:09:06.011Z,11.57
2023-04-18T13:11:32.468Z,13.00
2023-04-18T13:13:59.485Z,12.70
2023-04-18T13:16:25.990Z,12.17
2023-04-18T13:18:52.662Z,12.03
2023-04-18T13:21:19.113Z,12.43
2023-04-18T13:23:45.681Z,12.47
2023-04-18T13:26:12.163Z,12.50
2023-04-18T13:28:38.607Z,15.63
2023-04-18T13:31:05.484Z,16.43
2023-04-18T13:33:31.955Z,15.73
2023-04-18T13:35:58.446Z,15.60
2023-04-18T13:38:24.956Z,13.57
2023-04-18T13:41:01.017Z,12.77
2023-04-18T13:43:35.256Z,12.83
2023-04-18T13:46:01.768Z,12.17
2023-04-18T13:48:28.228Z,12.57
2023-04-18T13:50:55.140Z,13.30
2023-04-18T13:53:21.790Z,12.70
2023-04-18T13:55:48.252Z,12.47
2023-04-18T13:58:14.851Z,13.33
2023-04-18T14:00:41.746Z,13.00
2023-04-18T14:03:08.369Z,12.47
2023-04-18T14:05:36.050Z,12.43
2023-04-18T14:08:04.110Z,12.33
2023-04-18T14:10:31.198Z,11.63
2023-04-18T14:12:57.705Z,11.00
2023-04-18T14:15:24.275Z,11.60
2023-04-18T14:17:50.816Z,11.07
2023-04-18T14:20:19.444Z,11.90
2023-04-18T14:22:52.389Z,11.17
2023-04-18T14:25:19.624Z,11.77
2023-04-18T14:27:47.296Z,11.87
2023-04-18T14:30:14.273Z,11.50
2023-04-18T14:32:40.977Z,11.60
2023-04-18T14:35:08.145Z,11.10
2023-04-18T14:37:35.499Z,11.33
2023-04-18T14:40:01.959Z,10.97
2023-04-18T14:42:28.444Z,10.90
2023-04-18T14:44:54.967Z,10.80
2023-04-18T14:47:22.287Z,11.70
2023-04-18T14:49:49.967Z,11.43
2023-04-18T14:52:16.471Z,11.43
2023-04-18T14:54:44.067Z,10.43
2023-04-18T14:57:12.908Z,12.60
2023-04-18T14:59:39.386Z,12.37
2023-04-18T15:02:05.969Z,13.17
2023-04-18T15:04:32.704Z,12.07
2023-04-18T15:06:59.222Z,12.27
2023-04-18T15:09:25.716Z,12.03
2023-04-18T15:11:52.240Z,11.70
2023-04-18T15:14:18.919Z,11.50
2023-04-18T15:16:45.421Z,11.43
2023-04-18T15:19:11.948Z,12.17
2023-04-18T15:21:38.567Z,11.53
2023-04-18T15:24:05.146Z,11.37
2023-04-18T15:26:33.145Z,11.93
2023-04-18T15:29:01.593Z,11.23
2023-04-18T15:31:28.534Z,11.00
2023-04-18T15:33:55.103Z,10.70
2023-04-18T15:36:21.731Z,11.57
2023-04-18T15:38:48.262Z,10.60
2023-04-18T15:41:14.805Z,11.40
2023-04-18T15:43:42.061Z,10.67
2023-04-18T15:46:09.324Z,10.13
2023-04-18T15:48:36.550Z,9.90
2023-04-18T15:51:03.862Z,10.00
2023-04-18T15:53:30.477Z,11.20
2023-04-18T15:55:57.412Z,10.07
2023-04-18T15:58:24.194Z,10.37
2023-04-18T16:00:51.256Z,10.27
2023-04-18T16:03:17.868Z,10.60
2023-04-18T16:05:44.481Z,10.30
2023-04-18T16:08:11.085Z,10.50
2023-04-18T16:10:38.039Z,10.47
2023-04-18T16:13:04.626Z,10.50
2023-04-18T16:15:31.587Z,10.53
2023-04-18T16:17:58.193Z,11.13
2023-04-18T16:20:26.663Z,11.07
2023-04-18T16:22:53.438Z,11.60
2023-04-18T16:25:20.274Z,10.90
2023-04-18T16:27:46.728Z,11.67
2023-04-18T16:30:13.836Z,12.13
2023-04-18T16:32:40.433Z,11.97
2023-04-18T16:35:08.962Z,11.43
2023-04-18T16:37:35.655Z,11.40
2023-04-18T16:40:03.595Z,11.87
2023-04-18T16:42:30.134Z,10.80
2023-04-18T16:44:56.580Z,10.57
2023-04-18T16:47:23.248Z,10.60
2023-04-18T16:49:51.479Z,11.20
2023-04-18T16:52:18.152Z,11.20
2023-04-18T16:54:45.315Z,11.30
2023-04-18T16:57:11.858Z,11.50
2023-04-18T16:59:38.348Z,10.87
2023-04-18T17:02:05.807Z,11.17
2023-04-18T17:04:32.664Z,9.70
2023-04-18T17:06:59.332Z,11.83
2023-04-18T17:09:25.823Z,10.70
2023-04-18T17:11:52.317Z,10.30
2023-04-18T17:14:18.970Z,10.10
2023-04-18T17:16:45.642Z,10.60
2023-04-18T17:19:12.320Z,10.00
2023-04-18T17:21:39.018Z,9.80
2023-04-18T17:24:07.084Z,11.30
2023-04-18T17:26:34.271Z,10.20
2023-04-18T17:29:02.894Z,10.80
2023-04-18T17:31:29.612Z,10.33
2023-04-18T17:33:56.399Z,10.53
2023-04-18T17:36:22.908Z,10.50
2023-04-18T17:38:49.416Z,10.13
2023-04-18T17:41:19.765Z,10.07
2023-04-18T17:43:46.671Z,10.47
2023-04-18T17:46:13.842Z,10.40
2023-04-18T17:48:41.182Z,10.07
2023-04-18T17:51:07.696Z,10.43
2023-04-18T17:53:34.225Z,10.77
2023-04-18T17:56:00.847Z,10.30
2023-04-18T17:58:27.366Z,10.47
2023-04-18T18:00:53.900Z,10.03
2023-04-18T18:03:20.719Z,10.13
2023-04-18T18:05:48.408Z,10.87
2023-04-18T18:08:14.874Z,10.27
2023-04-18T18:10:41.452Z,11.17
2023-04-18T18:13:08.525Z,10.50
2023-04-18T18:15:35.063Z,10.43
2023-04-18T18:18:02.082Z,10.67
2023-04-18T18:20:28.742Z,10.33
2023-04-18T18:22:55.794Z,11.03
2023-04-18T18:25:22.299Z,10.97
2023-04-18T18:27:49.524Z,10.87
2023-04-18T18:30:16.333Z,10.97
2023-04-18T18:32:42.823Z,11.77
2023-04-18T18:35:09.469Z,11.27
2023-04-18T18:37:35.938Z,10.63
2023-04-18T18:40:04.927Z,11.20
2023-04-18T18:42:31.410Z,11.50
2023-04-18T18:44:58.151Z,11.70
2023-04-18T18:47:24.631Z,11.03
2023-04-18T18:49:51.120Z,11.23
2023-04-18T18:52:17.603Z,11.63
2023-04-18T18:54:44.137Z,10.90
2023-04-18T18:57:10.630Z,11.63
2023-04-18T18:59:37.100Z,11.50
2023-04-18T19:02:04.238Z,12.77
2023-04-18T19:04:30.930Z,11.40
2023-04-18T19:06:57.566Z,11.87
2023-04-18T19:09:24.184Z,11.47
2023-04-18T19:11:51.300Z,11.00
2023-04-18T19:14:17.766Z,11.07
2023-04-18T19:16:44.510Z,11.00
2023-04-18T19:19:11.449Z,11.10
2023-04-18T19:21:39.846Z,10.90
2023-04-18T19:24:06.512Z,11.77
2023-04-18T19:26:33.020Z,10.77
2023-04-18T19:28:59.518Z,10.47
2023-04-18T19:31:26.246Z,10.80
2023-04-18T19:33:52.799Z,11.30
2023-04-18T19:36:19.411Z,11.80
2023-04-18T19:38:45.937Z,10.83
2023-04-18T19:41:12.394Z,11.57
2023-04-18T19:43:40.437Z,10.67
2023-04-18T19:46:07.009Z,10.60
2023-04-18T19:48:33.584Z,10.90
2023-04-18T19:51:00.286Z,10.80
2023-04-18T19:53:26.857Z,9.90
2023-04-18T19:55:55.303Z,10.90
2023-04-18T19:58:35.775Z,10.63
2023-04-18T20:01:02.337Z,10.07
2023-04-18T20:03:29.021Z,11.17
2023-04-18T20:05:55.677Z,10.57
2023-04-18T20:08:22.175Z,10.77
2023-04-18T20:10:48.663Z,10.20
2023-04-18T20:13:15.640Z,10.97
2023-04-18T20:15:42.339Z,10.20
2023-04-18T20:18:08.867Z,10.17
2023-04-18T20:20:35.837Z,9.90
2023-04-18T20:23:03.488Z,10.20
2023-04-18T20:25:29.978Z,10.83
2023-04-18T20:27:56.456Z,10.20
2023-04-18T20:30:23.017Z,9.43
2023-04-18T20:32:49.506Z,10.60
2023-04-18T20:35:16.019Z,10.30
2023-04-18T20:37:42.508Z,10.73
2023-04-18T20:40:09.765Z,10.63
2023-04-18T20:42:36.879Z,11.30
2023-04-18T20:45:03.821Z,10.33
2023-04-18T20:47:30.369Z,10.03
2023-04-18T20:49:56.842Z,10.07
2023-04-18T20:52:23.322Z,9.80
2023-04-18T20:54:49.796Z,10.37
2023-04-18T20:57:16.448Z,9.93
2023-04-18T20:59:43.013Z,10.37
2023-04-18T21:02:09.571Z,10.00
2023-04-18T21:04:39.602Z,10.23
2023-04-18T21:07:06.082Z,10.17
2023-04-18T21:09:36.879Z,10.77
2023-04-18T21:12:03.818Z,9.27
2023-04-18T21:14:30.336Z,10.93
2023-04-18T21:16:59.322Z,10.67
2023-04-18T21:19:25.878Z,9.93
2023-04-18T21:21:52.308Z,10.27
2023-04-18T21:24:18.877Z,10.20
2023-04-18T21:26:45.520Z,9.33
2023-04-18T21:29:12.032Z,10.37
2023-04-18T21:31:38.661Z,10.90
2023-04-18T21:34:05.505Z,10.57
2023-04-18T21:36:32.361Z,11.17
2023-04-18T21:38:59.454Z,10.97
2023-04-18T21:41:26.138Z,9.67
2023-04-18T21:43:52.850Z,10.30
2023-04-18T21:46:19.497Z,11.03
2023-04-18T21:48:46.749Z,9.93
2023-04-18T21:51:15.118Z,10.87
2023-04-18T21:53:41.664Z,10.53
2023-04-18T21:56:08.568Z,10.73
2023-04-18T21:58:35.458Z,11.03
2023-04-18T22:01:02.140Z,10.77
2023-04-18T22:03:29.228Z,10.93
2023-04-18T22:05:56.707Z,10.43
2023-04-18T22:08:25.852Z,11.07
2023-04-18T22:10:56.352Z,10.73
2023-04-18T22:13:22.896Z,9.80
2023-04-18T22:15:50.067Z,10.17
2023-04-18T22:18:16.543Z,9.93
2023-04-18T22:20:46.997Z,9.47
2023-04-18T22:23:13.741Z,10.03
2023-04-18T22:25:40.255Z,10.47
2023-04-18T22:28:06.722Z,10.33
2023-04-18T22:30:33.309Z,9.70
2023-04-18T22:32:59.993Z,10.63
2023-04-18T22:35:27.136Z,11.00
2023-04-18T22:37:53.808Z,11.03
2023-04-18T22:40:20.363Z,10.57
2023-04-18T22:42:46.916Z,10.53
2023-04-18T22:45:13.754Z,10.13
2023-04-18T22:47:40.522Z,10.17
2023-04-18T22:50:07.971Z,10.93
2023-04-18T22:52:34.644Z,10.87
2023-04-18T22:55:04.405Z,10.63
2023-04-18T22:57:30.917Z,10.67
2023-04-18T22:59:57.396Z,10.27
2023-04-18T23:02:24.064Z,10.37
2023-04-18T23:04:51.101Z,11.37
2023-04-18T23:07:17.575Z,11.20
2023-04-18T23:09:44.103Z,10.40
2023-04-18T23:12:10.581Z,10.90
2023-04-18T23:14:37.095Z,10.60
2023-04-18T23:17:03.608Z,11.10
2023-04-18T23:19:30.054Z,11.87
2023-04-18T23:21:56.719Z,10.73
2023-04-18T23:24:23.208Z,11.93
2023-04-18T23:26:49.706Z,10.97
2023-04-18T23:29:16.205Z,10.03
2023-04-18T23:31:42.861Z,10.50
2023-04-18T23:34:10.111Z,10.87
2023-04-18T23:36:37.357Z,11.37
2023-04-18T23:39:04.384Z,11.00
2023-04-18T23:41:31.763Z,11.63
2023-04-18T23:43:59.097Z,11.77
2023-04-18T23:46:26.847Z,11.30
2023-04-18T23:48:53.389Z,12.27
2023-04-18T23:51:19.863Z,11.27
2023-04-18T23:53:46.363Z,12.23
2023-04-18T23:56:12.854Z,12.33
2023-04-18T23:58:39.405Z,13.10
